Terminal Aerodrome Forecast
Issued by NWS Twin Cities, MN

Home | Current Version | Previous Version | Graphics & Text | Print | Product List | Glossary On
Versions: 1 2 3 4 5 6 7 8 9 10 11 12 13 14 15 16 17 18 19
684
FTUS43 KMPX 051407 AAA
TAFEAU
TAF AMD
KEAU 051407Z 0514/0612 17006KT 6SM BR SCT020
      TEMPO 0514/0515 1/4SM FZFG BKN003
     FM051500 14009KT P6SM OVC060
     FM052000 17011KT P6SM OVC040
     FM060200 18012KT P6SM VCSH OVC025
     FM060800 23011KT P6SM OVC015=

USA.gov is the U.S. government's official web portal to all federal, state and local government web resources and services.